AZO weather

Kalamazoo Battle Creek International Airport
Kalamazoo, Michigan, United States

Public forecast

Using degrees Fahrenheit for public forecast. Weather courtesy of forecast.io.

Current aviation weather report (METAR) for Kalamazoo Battle Creek International Airport

Retrieved 2020/07/14 02:53 UTC (34 minutes ago):

KAZO 140253Z AUTO 34003KT 10SM CLR 21/15 A3001 RMK AO2 SLP160 T02060150 53006

Aviation forecast (TAF) for Kalamazoo Battle Creek International Airport

Retrieved 2020-07-14 00:42 UTC (3 hours ago):

TAF KAZO 132340Z 1400/1424 VRB03KT P6SM SKC FM141200 20006KT P6SM SCT035